Time;durP1;ratioP1;P1;durP2;ratioP2;P2;SDS_P1;SDS_P2;PMS_P1;PMS_P2;Temp;Humidity;BMP_temperature;BMP_pressure;BME280_temperature;BME280_humidity;BME280_pressure;Samples;Min_cycle;Max_cycle;Signal;HPM_P1;HPM_P2
2023/04/30 00:01:00;;;;;;;10.45;7.05;;;;;;;7.58;85.76;102218.16;4966679;28;20575;-71
2023/04/30 00:03:28;;;;;;;10.93;7.30;;;;;;;7.59;86.29;102213.78;4971076;28;20097;-71
2023/04/30 00:05:55;;;;;;;11.10;7.22;;;;;;;7.57;86.45;102215.53;4970696;28;20043;-71
2023/04/30 00:08:22;;;;;;;12.35;7.15;;;;;;;7.52;86.70;102207.66;4970603;28;20047;-70
2023/04/30 00:10:50;;;;;;;10.23;7.20;;;;;;;7.47;86.47;102211.97;4969302;28;20523;-71
2023/04/30 00:13:17;;;;;;;11.15;8.07;;;;;;;7.43;86.58;102212.81;4967953;28;20468;-70
2023/04/30 00:15:45;;;;;;;15.20;8.05;;;;;;;7.40;86.92;102215.47;4969526;28;20051;-71
2023/04/30 00:18:12;;;;;;;11.52;7.40;;;;;;;7.37;87.13;102216.31;4968981;28;20862;-71
2023/04/30 00:20:39;;;;;;;11.95;7.78;;;;;;;7.33;87.33;102211.91;4970424;28;20603;-71
2023/04/30 00:23:06;;;;;;;11.45;7.63;;;;;;;7.29;87.61;102211.03;4969737;28;21015;-71
2023/04/30 00:25:34;;;;;;;10.73;7.57;;;;;;;7.26;87.62;102216.25;4969853;28;20049;-71
2023/04/30 00:28:01;;;;;;;10.82;8.07;;;;;;;7.25;87.99;102221.50;4969975;28;20043;-71
2023/04/30 00:30:28;;;;;;;11.70;8.25;;;;;;;7.20;88.31;102220.56;4952940;28;20800;-71
2023/04/30 00:32:55;;;;;;;12.55;8.40;;;;;;;7.17;88.59;102210.94;4982856;28;20047;-71
2023/04/30 00:35:22;;;;;;;12.18;8.02;;;;;;;7.12;88.56;102213.56;4970050;28;20075;-71
2023/04/30 00:37:49;;;;;;;11.65;8.55;;;;;;;7.09;88.50;102216.16;4968853;28;20540;-71
2023/04/30 00:40:16;;;;;;;14.57;8.77;;;;;;;7.04;88.62;102215.25;4969670;28;20043;-71
2023/04/30 00:42:43;;;;;;;11.07;8.23;;;;;;;7.01;88.70;102216.97;4968510;28;20122;-71
2023/04/30 00:45:10;;;;;;;15.15;8.60;;;;;;;6.95;88.83;102208.19;4969817;28;20039;-71
2023/04/30 00:47:39;;;;;;;13.00;9.00;;;;;;;6.96;88.95;102214.34;4985288;28;20574;-70
2023/04/30 00:50:06;;;;;;;14.43;8.63;;;;;;;6.96;89.19;102222.19;4969576;28;20042;-70
2023/04/30 00:52:34;;;;;;;13.43;9.05;;;;;;;6.92;89.47;102210.78;4969296;28;20053;-71
2023/04/30 00:55:01;;;;;;;13.27;8.52;;;;;;;6.90;89.38;102211.66;4969730;28;20035;-71
2023/04/30 00:57:28;;;;;;;11.35;8.48;;;;;;;6.84;89.41;102218.63;4969836;28;20047;-70
2023/04/30 00:59:55;;;;;;;13.07;8.90;;;;;;;6.80;89.04;102216.84;4967382;28;20054;-71
2023/04/30 01:02:23;;;;;;;12.15;8.73;;;;;;;6.76;89.13;102228.19;4972489;28;20039;-71
2023/04/30 01:04:50;;;;;;;14.60;8.60;;;;;;;6.73;89.35;102225.53;4975960;28;20046;-71
2023/04/30 01:07:18;;;;;;;13.70;8.82;;;;;;;6.68;89.37;102224.59;4972791;28;20069;-71
2023/04/30 01:09:45;;;;;;;12.70;8.38;;;;;;;6.65;89.30;102233.31;4989306;28;20038;-71
2023/04/30 01:12:57;;;;;;;13.38;9.07;;;;;;;6.61;89.40;102228.03;4986753;28;20043;-71
2023/04/30 01:16:14;;;;;;;15.90;9.63;;;;;;;6.50;89.82;102223.56;4988314;28;20047;-71
2023/04/30 01:18:53;;;;;;;13.80;9.35;;;;;;;6.45;90.15;102232.25;4966850;28;20081;-71
2023/04/30 01:21:23;;;;;;;13.38;9.18;;;;;;;6.40;90.35;102226.13;4986711;28;20051;-70
2023/04/30 01:24:10;;;;;;;13.13;10.18;;;;;;;6.37;90.72;102224.31;4987006;28;20051;-71
2023/04/30 01:27:15;;;;;;;13.07;9.63;;;;;;;6.33;90.59;102227.78;4987297;28;20494;-71
2023/04/30 01:29:42;;;;;;;14.00;8.75;;;;;;;6.27;90.35;102225.09;4986405;28;20038;-71
2023/04/30 01:32:10;;;;;;;13.18;9.63;;;;;;;6.24;90.25;102225.94;4985552;28;20118;-71
2023/04/30 01:34:37;;;;;;;14.18;9.25;;;;;;;6.19;90.41;102228.53;4989185;28;20043;-71
2023/04/30 01:37:41;;;;;;;13.77;9.98;;;;;;;6.16;90.66;102227.63;4988602;28;20102;-71
2023/04/30 01:40:36;;;;;;;13.27;9.70;;;;;;;6.09;90.68;102226.69;4986950;28;20566;-71
2023/04/30 01:43:32;;;;;;;;;;;;;;;6.01;90.37;102226.59;4988662;28;20049;-71
2023/04/30 01:46:29;;;;;;;13.77;10.43;;;;;;;5.98;91.02;102223.91;4987240;28;19926;-71
2023/04/30 01:49:31;;;;;;;11.95;9.95;;;;;;;5.96;91.25;102212.56;4986817;28;20049;-70
2023/04/30 01:52:27;;;;;;;15.52;11.32;;;;;;;5.91;91.96;102219.44;4987138;28;20057;-71
2023/04/30 01:55:12;;;;;;;14.43;10.32;;;;;;;5.88;92.49;102228.16;4987166;28;20039;-71
2023/04/30 01:57:57;;;;;;;16.25;11.43;;;;;;;5.85;92.87;102222.03;4987326;28;20035;-71
2023/04/30 02:00:29;;;;;;;15.70;10.93;;;;;;;5.81;93.10;102221.09;4986131;28;20047;-71
2023/04/30 02:02:58;;;;;;;19.63;11.90;;;;;;;5.75;93.32;102218.41;4966995;28;20090;-70
2023/04/30 02:05:25;;;;;;;16.67;12.07;;;;;;;5.73;93.75;102233.22;4967229;28;20872;-71
2023/04/30 02:07:52;;;;;;;15.82;11.48;;;;;;;5.68;93.91;102224.44;4983152;28;20074;-71
2023/04/30 02:10:24;;;;;;;14.73;11.07;;;;;;;5.66;93.78;102234.00;4968980;28;20044;-70
2023/04/30 02:12:52;;;;;;;18.45;12.48;;;;;;;5.63;94.12;102227.00;4983843;28;20739;-71
2023/04/30 02:15:19;;;;;;;18.30;12.00;;;;;;;5.65;94.72;102225.28;4966579;28;20492;-70
2023/04/30 02:17:46;;;;;;;16.23;12.20;;;;;;;5.65;94.91;102221.75;4966739;28;20479;-71
2023/04/30 02:20:14;;;;;;;19.13;12.52;;;;;;;5.65;95.13;102224.38;4969127;28;20043;-71
2023/04/30 02:22:42;;;;;;;18.60;12.63;;;;;;;5.64;95.40;102225.28;4968815;28;20043;-71
2023/04/30 02:25:11;;;;;;;17.25;13.02;;;;;;;5.64;95.49;102218.28;4951035;28;20086;-71
2023/04/30 02:27:38;;;;;;;17.80;13.25;;;;;;;5.65;95.79;102219.16;4966487;28;20053;-71
2023/04/30 02:30:06;;;;;;;16.85;13.07;;;;;;;5.64;95.60;102220.03;4967993;28;20543;-71
2023/04/30 02:32:34;;;;;;;18.63;13.00;;;;;;;5.64;96.18;102220.91;4967217;28;20114;-71
2023/04/30 02:35:01;;;;;;;16.40;12.73;;;;;;;5.66;96.15;102226.13;4968242;28;20039;-71
2023/04/30 02:37:28;;;;;;;17.52;13.20;;;;;;;5.64;96.23;102220.03;4966702;28;20039;-71
2023/04/30 02:39:56;;;;;;;20.35;13.48;;;;;;;5.64;96.20;102217.41;4967572;28;20044;-71
2023/04/30 02:42:24;;;;;;;18.58;13.95;;;;;;;5.62;96.12;102219.13;4967493;28;20043;-71
2023/04/30 02:44:51;;;;;;;19.05;13.20;;;;;;;5.59;95.92;102214.75;4967834;28;20047;-71
2023/04/30 02:47:18;;;;;;;21.00;13.77;;;;;;;5.60;96.02;102211.25;4967800;28;20039;-71
2023/04/30 02:49:45;;;;;;;17.73;13.10;;;;;;;5.57;95.96;102212.09;4966449;28;20050;-71
2023/04/30 02:52:12;;;;;;;17.35;13.77;;;;;;;5.58;95.84;102210.38;4968123;28;20484;-71
2023/04/30 02:54:39;;;;;;;19.10;13.90;;;;;;;5.53;95.64;102212.94;4968031;28;20043;-71
2023/04/30 02:57:07;;;;;;;19.10;13.68;;;;;;;5.52;95.46;102218.13;4966390;28;20047;-71
2023/04/30 02:59:34;;;;;;;16.98;13.85;;;;;;;5.50;95.40;102219.84;4966034;28;21595;-71
2023/04/30 03:02:01;;;;;;;19.27;13.80;;;;;;;5.47;95.57;102220.69;4966534;28;20043;-71
2023/04/30 03:04:29;;;;;;;22.35;13.52;;;;;;;5.42;95.37;102223.25;4966406;28;20122;-71
2023/04/30 03:06:56;;;;;;;19.20;14.18;;;;;;;5.39;95.81;102222.31;4968159;28;20058;-71
2023/04/30 03:09:23;;;;;;;22.27;13.60;;;;;;;5.39;96.24;102220.56;4967883;28;20122;-70
2023/04/30 03:11:50;;;;;;;20.25;14.75;;;;;;;5.38;96.83;102212.72;4967079;28;20114;-70
2023/04/30 03:14:17;;;;;;;20.90;14.38;;;;;;;5.39;97.03;102217.97;4966260;28;20047;-70
2023/04/30 03:16:44;;;;;;;19.58;14.70;;;;;;;5.39;97.22;102224.94;4969235;28;20570;-71
2023/04/30 03:19:11;;;;;;;23.65;14.98;;;;;;;5.38;97.34;102226.69;4987373;28;20047;-71
2023/04/30 03:21:38;;;;;;;20.30;14.90;;;;;;;5.38;97.25;102216.22;4985981;28;20035;-71
2023/04/30 03:24:06;;;;;;;22.60;14.85;;;;;;;5.36;97.59;102220.56;4987647;28;20043;-70
2023/04/30 03:26:33;;;;;;;19.30;14.35;;;;;;;5.38;97.65;102215.34;4985679;28;20160;-70
2023/04/30 03:29:00;;;;;;;21.98;15.35;;;;;;;5.38;98.00;102220.56;4985480;28;20039;-71
2023/04/30 03:31:28;;;;;;;21.63;15.18;;;;;;;5.36;97.93;102217.94;4985052;28;20109;-70
2023/04/30 03:33:55;;;;;;;22.88;15.38;;;;;;;5.39;98.64;102219.72;4987102;28;20049;-71
2023/04/30 03:36:22;;;;;;;22.23;15.90;;;;;;;5.41;98.56;102220.63;4988535;28;20065;-71
2023/04/30 03:38:49;;;;;;;19.65;14.90;;;;;;;5.37;98.42;102217.09;4972708;28;20043;-71
2023/04/30 03:41:16;;;;;;;21.55;14.95;;;;;;;5.35;98.39;102221.41;4990368;28;20051;-71
2023/04/30 03:43:43;;;;;;;21.98;15.23;;;;;;;5.33;98.29;102219.63;4989069;28;20038;-71
2023/04/30 03:46:10;;;;;;;21.52;15.52;;;;;;;5.29;98.30;102218.72;4988490;28;20047;-71
2023/04/30 03:48:37;;;;;;;23.10;15.25;;;;;;;5.27;98.27;102221.28;4988317;28;20102;-71
2023/04/30 03:51:05;;;;;;;22.63;15.90;;;;;;;5.24;98.15;102220.38;4988285;28;20066;-70
2023/04/30 03:53:32;;;;;;;20.15;15.63;;;;;;;5.25;98.40;102229.97;4989252;28;20597;-71
2023/04/30 03:55:59;;;;;;;22.83;16.20;;;;;;;5.23;98.58;102222.13;4989317;28;20061;-71
2023/04/30 03:58:27;;;;;;;22.98;15.55;;;;;;;5.19;98.77;102222.94;4988857;28;20685;-71
2023/04/30 04:00:54;;;;;;;24.95;16.55;;;;;;;5.17;98.55;102232.47;4988009;28;20039;-71
2023/04/30 04:03:22;;;;;;;23.65;16.67;;;;;;;5.17;98.48;102237.72;4988696;28;20039;-71
2023/04/30 04:05:49;;;;;;;24.33;16.85;;;;;;;5.16;98.41;102235.94;4989778;28;20102;-71
2023/04/30 04:08:17;;;;;;;22.90;16.73;;;;;;;5.14;98.21;102237.66;4989087;28;20151;-71
2023/04/30 04:10:44;;;;;;;23.98;17.13;;;;;;;5.15;98.36;102230.72;4989297;28;20038;-71
2023/04/30 04:13:11;;;;;;;24.10;17.00;;;;;;;5.16;98.20;102227.25;4988595;28;20046;-71
2023/04/30 04:15:38;;;;;;;26.42;17.70;;;;;;;5.15;98.15;102228.97;4988439;28;20035;-71
2023/04/30 04:18:07;;;;;;;25.20;16.88;;;;;;;5.14;98.30;102227.19;4959652;28;20047;-71
2023/04/30 04:20:34;;;;;;;23.23;18.00;;;;;;;5.13;98.25;102218.50;4970584;28;20464;-71
2023/04/30 04:23:02;;;;;;;23.77;16.52;;;;;;;5.16;98.17;102222.00;4984763;28;20047;-71
2023/04/30 04:25:29;;;;;;;28.35;17.00;;;;;;;5.20;98.35;102219.47;4969893;28;20123;-71
2023/04/30 04:27:57;;;;;;;25.63;18.17;;;;;;;5.19;97.95;102219.44;4985288;28;20047;-71
2023/04/30 04:30:24;;;;;;;23.38;17.02;;;;;;;5.20;97.83;102222.06;4969491;28;20071;-71
2023/04/30 04:32:52;;;;;;;25.58;17.88;;;;;;;5.42;97.55;102222.38;4968602;28;20102;-71
2023/04/30 04:35:20;;;;;;;22.83;16.63;;;;;;;6.02;95.88;102225.72;4969823;28;20047;-71
2023/04/30 04:37:47;;;;;;;20.42;15.80;;;;;;;6.36;94.20;102226.06;4968960;28;20087;-71
2023/04/30 04:40:14;;;;;;;20.67;14.13;;;;;;;6.76;93.06;102222.03;4968839;28;20066;-71
2023/04/30 04:42:42;;;;;;;18.80;14.07;;;;;;;7.47;90.27;102230.34;4970533;28;20050;-71
2023/04/30 04:45:10;;;;;;;16.60;12.43;;;;;;;7.39;89.60;102232.06;4968714;28;20043;-71
2023/04/30 04:47:38;;;;;;;16.05;12.40;;;;;;;7.43;89.12;102232.09;4977012;28;20054;-71
2023/04/30 04:50:06;;;;;;;17.92;11.63;;;;;;;7.67;88.05;102240.06;4987518;28;20181;-71
2023/04/30 04:52:33;;;;;;;15.45;11.50;;;;;;;8.23;86.09;102246.34;4989241;28;20055;-71
2023/04/30 04:55:00;;;;;;;17.45;11.95;;;;;;;8.49;84.64;102235.06;4988225;28;20108;-71
2023/04/30 04:57:27;;;;;;;13.10;10.30;;;;;;;8.73;83.81;102241.19;4989386;28;20054;-71
2023/04/30 04:59:55;;;;;;;14.68;10.35;;;;;;;8.73;83.14;102242.06;4989140;28;20039;-71
2023/04/30 05:02:22;;;;;;;15.05;10.43;;;;;;;8.97;82.00;102246.44;4988682;28;20043;-71
2023/04/30 05:04:50;;;;;;;13.68;10.50;;;;;;;9.18;81.52;102242.00;4972750;28;20039;-71
2023/04/30 05:07:18;;;;;;;15.77;10.32;;;;;;;9.35;81.03;102238.47;4987882;28;20042;-71
2023/04/30 05:09:46;;;;;;;13.93;9.88;;;;;;;9.91;78.95;102237.38;4987729;28;20051;-71
2023/04/30 05:12:14;;;;;;;13.45;10.05;;;;;;;9.95;78.49;102241.72;4988165;28;20039;-71
2023/04/30 05:14:41;;;;;;;11.80;9.10;;;;;;;10.19;77.22;102238.94;4989712;28;20477;-70
2023/04/30 05:17:09;;;;;;;12.00;9.55;;;;;;;10.61;76.24;102246.59;4981835;28;20491;-71
2023/04/30 05:19:35;;;;;;;11.52;9.02;;;;;;;11.13;74.65;102245.25;4969165;28;20173;-71
2023/04/30 05:22:03;;;;;;;13.05;8.98;;;;;;;12.10;71.88;102243.25;4969412;28;20036;-71
2023/04/30 05:24:30;;;;;;;11.38;8.43;;;;;;;13.56;68.04;102241.63;4970109;28;20744;-70
2023/04/30 05:26:57;;;;;;;12.32;8.52;;;;;;;14.84;63.92;102240.47;4968262;28;20361;-71
2023/04/30 05:29:24;;;;;;;10.68;8.05;;;;;;;15.95;61.33;102243.59;4970028;28;20051;-71
2023/04/30 05:31:51;;;;;;;10.23;7.25;;;;;;;16.96;57.25;102237.69;4968534;28;20082;-71
2023/04/30 05:34:18;;;;;;;9.02;6.97;;;;;;;17.81;54.51;102231.91;4969549;28;20036;-71
2023/04/30 05:36:45;;;;;;;8.60;6.80;;;;;;;18.54;52.52;102229.91;4968515;28;20102;-70
2023/04/30 05:39:13;;;;;;;7.05;6.35;;;;;;;19.13;49.66;102231.91;4969750;28;20050;-71
2023/04/30 05:41:40;;;;;;;8.82;6.72;;;;;;;19.55;47.90;102222.84;4984420;28;20047;-71
2023/04/30 05:44:07;;;;;;;9.98;6.07;;;;;;;19.79;46.71;102219.97;4969046;28;20040;-71
2023/04/30 05:46:34;;;;;;;9.02;6.22;;;;;;;19.13;45.62;102222.06;4968334;28;20043;-71
2023/04/30 05:49:01;;;;;;;8.43;6.20;;;;;;;16.52;50.93;102224.97;4988635;28;20053;-71
2023/04/30 05:51:28;;;;;;;10.88;6.50;;;;;;;14.35;56.78;102234.56;4988754;28;20058;-71
2023/04/30 05:53:56;;;;;;;9.25;6.85;;;;;;;12.94;61.16;102236.59;4988719;28;20150;-71
2023/04/30 05:56:24;;;;;;;10.27;7.07;;;;;;;11.97;64.63;102237.19;4987910;28;20042;-71
2023/04/30 05:58:51;;;;;;;10.57;6.75;;;;;;;11.33;67.24;102242.41;4987773;28;20043;-71
2023/04/30 06:01:19;;;;;;;10.13;7.53;;;;;;;10.89;69.48;102247.22;4987642;28;20039;-71
2023/04/30 06:03:47;;;;;;;11.82;7.47;;;;;;;10.49;71.20;102243.19;4988647;28;20110;-70
2023/04/30 06:06:14;;;;;;;10.30;8.20;;;;;;;10.19;72.60;102238.94;4987540;28;20117;-70
2023/04/30 06:08:44;;;;;;;10.30;7.68;;;;;;;9.97;74.02;102246.97;4988320;28;20566;-71
2023/04/30 06:11:12;;;;;;;11.55;8.18;;;;;;;9.84;74.34;102235.63;4988854;28;20511;-71
2023/04/30 06:13:39;;;;;;;9.50;7.90;;;;;;;9.66;75.41;102240.97;4985981;28;20043;-70
2023/04/30 06:16:07;;;;;;;12.65;8.75;;;;;;;9.56;76.30;102248.06;4987957;28;20050;-70
2023/04/30 06:18:34;;;;;;;14.48;9.05;;;;;;;9.51;76.76;102239.28;4987284;28;20045;-71
2023/04/30 06:21:02;;;;;;;12.07;8.77;;;;;;;9.48;77.06;102245.44;4987849;28;20377;-70
2023/04/30 06:23:29;;;;;;;11.70;8.30;;;;;;;9.45;77.13;102248.97;4986112;28;20050;-71
2023/04/30 06:25:56;;;;;;;12.10;8.35;;;;;;;9.43;77.49;102245.47;4988344;28;20042;-70
2023/04/30 06:28:23;;;;;;;12.80;9.32;;;;;;;9.43;77.49;102237.56;4986213;28;20043;-71
2023/04/30 06:30:51;;;;;;;10.75;8.05;;;;;;;9.42;77.70;102246.34;4987580;28;20065;-70
2023/04/30 06:33:18;;;;;;;12.68;9.15;;;;;;;9.43;78.42;102248.09;4987043;28;20154;-70
2023/04/30 06:35:45;;;;;;;14.45;9.05;;;;;;;9.46;78.50;102242.78;4986984;28;20046;-70
2023/04/30 06:38:17;;;;;;;11.75;8.55;;;;;;;9.54;78.59;102244.56;4988197;28;20049;-71
2023/04/30 06:40:44;;;;;;;13.00;8.48;;;;;;;9.63;78.74;102247.16;4987802;28;20031;-70
2023/04/30 06:43:11;;;;;;;14.60;8.50;;;;;;;9.72;79.12;102241.84;4986313;28;20065;-71
2023/04/30 06:45:38;;;;;;;12.10;8.05;;;;;;;9.84;79.34;102243.53;4970105;28;20047;-71
2023/04/30 06:48:05;;;;;;;11.80;7.90;;;;;;;9.99;78.32;102242.56;4969962;28;20526;-70
2023/04/30 06:50:32;;;;;;;10.90;6.70;;;;;;;10.10;76.69;102242.53;5001340;28;20079;-70
2023/04/30 06:53:00;;;;;;;10.88;6.53;;;;;;;10.11;76.32;102233.75;4987626;28;20066;-71
2023/04/30 06:55:27;;;;;;;8.35;6.50;;;;;;;10.17;76.25;102240.75;4987724;28;20039;-71
2023/04/30 06:57:54;;;;;;;9.05;6.72;;;;;;;10.22;76.33;102242.47;4986446;28;20556;-71
2023/04/30 07:00:22;;;;;;;9.63;7.03;;;;;;;10.29;76.19;102240.63;4985403;28;20507;-71
2023/04/30 07:02:50;;;;;;;9.45;6.50;;;;;;;10.41;75.68;102239.72;4984405;28;20038;-71
2023/04/30 07:05:18;;;;;;;10.00;6.60;;;;;;;10.48;75.28;102240.56;4970597;28;20125;-71
2023/04/30 07:07:45;;;;;;;9.48;6.32;;;;;;;10.53;74.90;102242.25;4970102;28;20039;-71
2023/04/30 07:10:12;;;;;;;11.98;6.88;;;;;;;10.61;75.64;102242.19;4985508;28;20057;-71
2023/04/30 07:12:39;;;;;;;10.25;6.82;;;;;;;10.70;76.25;102244.75;4985914;28;20035;-70
2023/04/30 07:15:07;;;;;;;9.38;6.32;;;;;;;10.87;75.99;102241.97;4987332;28;20039;-71
2023/04/30 07:17:34;;;;;;;11.15;6.78;;;;;;;11.02;75.53;102253.28;4981078;28;20039;-71
2023/04/30 07:20:03;;;;;;;13.07;6.60;;;;;;;11.14;75.78;102247.84;4982480;28;20035;-71
2023/04/30 07:22:30;;;;;;;11.27;6.70;;;;;;;11.31;75.33;102247.69;4981744;28;20054;-71
2023/04/30 07:24:59;;;;;;;9.18;6.30;;;;;;;11.44;73.34;102250.19;4967833;28;20821;-71
2023/04/30 07:27:27;;;;;;;9.45;6.63;;;;;;;11.48;74.24;102244.84;4967767;28;20118;-71
2023/04/30 07:29:54;;;;;;;9.50;6.60;;;;;;;11.62;73.67;102247.34;4966834;28;20043;-71
2023/04/30 07:32:25;;;;;;;10.57;7.20;;;;;;;11.70;73.46;102249.03;4981770;28;20111;-70
2023/04/30 07:34:53;;;;;;;11.55;6.78;;;;;;;11.78;73.75;102237.44;4982502;28;20542;-70
2023/04/30 07:37:20;;;;;;;10.88;6.82;;;;;;;11.91;72.84;102240.78;4967719;28;20047;-71
2023/04/30 07:39:47;;;;;;;9.05;6.10;;;;;;;11.96;72.19;102241.63;4967569;28;20031;-71
2023/04/30 07:42:15;;;;;;;10.00;6.55;;;;;;;12.01;72.09;102238.06;4967137;28;20043;-70
2023/04/30 07:44:42;;;;;;;8.50;6.30;;;;;;;12.06;71.76;102245.03;4967785;28;20075;-70
2023/04/30 07:47:09;;;;;;;8.27;6.32;;;;;;;12.12;71.39;102246.72;4984179;28;20629;-71
2023/04/30 07:49:36;;;;;;;8.27;6.03;;;;;;;12.19;72.29;102244.84;4986874;28;20054;-70
2023/04/30 07:52:04;;;;;;;8.80;6.47;;;;;;;12.31;72.28;102238.53;4986446;28;20058;-71
2023/04/30 07:54:35;;;;;;;8.15;6.40;;;;;;;12.41;72.24;102235.72;4986427;28;20047;-71
2023/04/30 07:57:02;;;;;;;8.63;6.65;;;;;;;12.54;71.65;102238.16;4971363;28;20471;-71
2023/04/30 07:59:30;;;;;;;8.23;6.50;;;;;;;12.59;70.93;102241.59;4965923;28;20043;-71
2023/04/30 08:01:57;;;;;;;8.60;6.70;;;;;;;12.74;71.55;102243.09;4965944;28;20043;-71
2023/04/30 08:04:24;;;;;;;9.38;6.90;;;;;;;12.85;71.32;102248.22;4965705;28;20117;-70
2023/04/30 08:06:52;;;;;;;10.93;6.85;;;;;;;12.94;68.71;102247.19;4967295;28;20583;-71
2023/04/30 08:09:19;;;;;;;9.75;7.28;;;;;;;12.93;68.43;102248.97;4965761;28;20067;-71
2023/04/30 08:11:46;;;;;;;7.70;6.80;;;;;;;12.93;68.57;102250.72;4966832;28;20487;-71
2023/04/30 08:14:13;;;;;;;7.72;6.38;;;;;;;12.98;69.83;102248.88;4966605;28;20047;-70
2023/04/30 08:16:40;;;;;;;10.35;6.22;;;;;;;13.14;69.42;102250.34;4966979;28;20526;-70
2023/04/30 08:19:07;;;;;;;10.27;6.30;;;;;;;13.22;68.13;102249.34;4965873;28;20036;-70
2023/04/30 08:21:34;;;;;;;8.68;6.40;;;;;;;13.25;68.25;102241.31;4966960;28;20500;-71
2023/04/30 08:24:01;;;;;;;8.75;6.72;;;;;;;13.31;68.03;102254.47;4970159;28;20047;-70
2023/04/30 08:26:28;;;;;;;11.02;7.10;;;;;;;13.34;67.99;102251.72;4987210;28;20055;-71
2023/04/30 08:28:55;;;;;;;9.15;6.07;;;;;;;13.40;67.91;102249.00;4988746;28;20106;-71
2023/04/30 08:31:22;;;;;;;10.52;6.70;;;;;;;13.48;67.71;102252.38;4972689;28;20043;-71
2023/04/30 08:33:49;;;;;;;9.43;6.43;;;;;;;13.60;67.75;102248.59;4987912;28;20578;-71
2023/04/30 08:36:16;;;;;;;9.77;6.22;;;;;;;13.70;67.78;102257.25;4988084;28;20050;-71
2023/04/30 08:38:43;;;;;;;9.90;6.65;;;;;;;13.82;68.19;102254.34;4989436;28;20130;-71
2023/04/30 08:41:13;;;;;;;7.72;6.47;;;;;;;14.01;66.46;102248.63;4988476;28;20057;-71
2023/04/30 08:43:43;;;;;;;9.35;6.80;;;;;;;14.02;65.51;102250.38;4989607;28;20535;-71
2023/04/30 08:46:15;;;;;;;13.18;6.60;;;;;;;13.98;65.66;102248.69;4990147;28;20078;-71
2023/04/30 08:48:43;;;;;;;8.55;6.90;;;;;;;14.03;65.87;102252.13;4986925;28;20678;-71
2023/04/30 08:51:10;;;;;;;11.63;6.72;;;;;;;14.10;64.49;102242.22;4987872;28;20097;-71
2023/04/30 08:53:39;;;;;;;8.25;6.10;;;;;;;14.10;65.88;102251.06;4987701;28;20097;-70
2023/04/30 08:56:09;;;;;;;9.07;6.10;;;;;;;14.23;65.55;102242.84;4986816;28;20067;-70
2023/04/30 08:58:36;;;;;;;8.02;6.25;;;;;;;14.31;63.92;102242.63;4972377;28;20043;-70
2023/04/30 09:01:07;;;;;;;9.30;5.72;;;;;;;14.23;63.90;102235.72;4968418;28;20039;-71
2023/04/30 09:03:35;;;;;;;7.72;5.60;;;;;;;14.24;64.67;102231.31;4984138;28;20043;-71
2023/04/30 09:06:03;;;;;;;6.63;4.75;;;;;;;14.36;63.19;102231.00;4984123;28;20560;-70
2023/04/30 09:08:48;;;;;;;7.72;5.10;;;;;;;14.44;62.68;102231.72;4984670;28;20047;-70
2023/04/30 09:11:28;;;;;;;7.60;5.35;;;;;;;14.54;63.10;102223.53;4969509;28;20516;-70
2023/04/30 09:13:58;;;;;;;6.80;4.90;;;;;;;14.60;62.39;102233.97;4969259;28;20051;-71
2023/04/30 09:16:31;;;;;;;6.30;4.70;;;;;;;14.62;62.45;102226.84;4969562;28;20992;-71
2023/04/30 09:18:59;;;;;;;6.70;4.82;;;;;;;14.67;61.92;102232.94;4966637;28;20461;-70
2023/04/30 09:21:36;;;;;;;5.70;4.53;;;;;;;14.73;61.12;102234.56;4968464;28;20043;-70
2023/04/30 09:24:04;;;;;;;6.65;4.90;;;;;;;14.78;61.52;102230.00;4984219;28;20544;-71
2023/04/30 09:26:37;;;;;;;6.80;4.68;;;;;;;14.86;61.69;102224.47;4991891;28;20070;-71
2023/04/30 09:29:09;;;;;;;7.05;4.68;;;;;;;14.99;61.92;102230.38;4988962;28;20058;-71
2023/04/30 09:31:38;;;;;;;5.80;4.15;;;;;;;15.15;59.82;102214.88;4988727;28;20117;-71
2023/04/30 09:34:05;;;;;;;5.55;4.22;;;;;;;15.22;60.29;102219.97;4986675;28;20047;-71
2023/04/30 09:36:33;;;;;;;6.45;4.55;;;;;;;15.30;59.99;102214.44;4987852;28;20043;-70
2023/04/30 09:39:17;;;;;;;7.63;5.00;;;;;;;15.34;59.90;102208.13;4988440;28;20043;-70
2023/04/30 09:41:44;;;;;;;4.85;3.25;;;;;;;15.30;58.81;102217.09;4986838;28;20129;-71
2023/04/30 09:44:27;;;;;;;5.45;3.90;;;;;;;15.36;57.99;102218.72;4988585;28;20050;-70
2023/04/30 09:46:57;;;;;;;5.15;4.35;;;;;;;15.41;57.86;102213.25;4986960;28;20562;-70
2023/04/30 09:49:26;;;;;;;5.20;3.92;;;;;;;15.39;58.66;102210.66;4970704;28;20550;-71
2023/04/30 09:52:00;;;;;;;5.57;3.90;;;;;;;15.46;58.52;102212.22;4988261;28;20061;-71
2023/04/30 09:54:31;;;;;;;4.88;3.80;;;;;;;15.55;58.84;102203.13;4986493;28;20126;-71
2023/04/30 09:57:01;;;;;;;5.85;3.72;;;;;;;15.71;57.61;102195.56;4974489;28;20118;-71
2023/04/30 09:59:35;;;;;;;5.45;3.45;;;;;;;15.70;57.45;102193.81;4999892;28;20504;-71
2023/04/30 10:02:07;;;;;;;4.72;3.38;;;;;;;15.78;58.87;102191.78;4986955;28;20133;-70
2023/04/30 10:04:37;;;;;;;4.78;3.90;;;;;;;16.02;60.37;102181.34;4985879;28;20070;-70
2023/04/30 10:07:33;;;;;;;5.88;4.60;;;;;;;16.26;58.71;102186.75;4988351;28;20043;-71
2023/04/30 10:10:09;;;;;;;5.72;3.78;;;;;;;16.42;56.79;102189.78;4988177;28;20054;-71
2023/04/30 10:12:55;;;;;;;4.90;3.58;;;;;;;16.32;56.06;102181.25;4988448;28;20109;-70
2023/04/30 10:15:33;;;;;;;3.90;3.10;;;;;;;16.28;55.31;102185.78;4986679;28;20045;-70
2023/04/30 10:18:13;;;;;;;4.55;3.20;;;;;;;16.33;54.42;102184.78;4986258;28;20046;-71
2023/04/30 10:20:41;;;;;;;5.32;3.38;;;;;;;16.24;55.46;102173.50;4986197;28;20126;-71
2023/04/30 10:23:08;;;;;;;3.25;2.92;;;;;;;16.39;54.47;102174.78;4988217;28;20082;-70
2023/04/30 10:25:37;;;;;;;3.42;2.80;;;;;;;16.42;55.23;102180.03;4986781;28;20038;-71
2023/04/30 10:28:07;;;;;;;4.72;3.05;;;;;;;16.58;54.40;102177.69;4971245;28;20047;-70
2023/04/30 10:30:35;;;;;;;4.82;3.38;;;;;;;16.66;53.43;102179.22;4967574;28;20047;-71
2023/04/30 10:33:21;;;;;;;5.60;2.83;;;;;;;16.76;53.16;102181.50;4968259;28;20054;-70
2023/04/30 10:36:07;;;;;;;4.93;3.67;;;;;;;16.84;52.72;102175.06;4967868;28;20036;-70
2023/04/30 10:38:36;;;;;;;;;;;;;;;16.86;53.81;102174.06;4974657;28;20039;-71
2023/04/30 10:41:08;;;;;;;4.88;3.25;;;;;;;16.84;54.80;102173.25;4986630;28;19926;-71
2023/04/30 10:43:35;;;;;;;4.82;3.30;;;;;;;17.01;52.02;102171.78;4986535;28;20047;-70
2023/04/30 10:46:03;;;;;;;6.18;4.28;;;;;;;17.00;53.39;102170.06;4987519;28;20078;-71
2023/04/30 10:48:34;;;;;;;6.72;3.63;;;;;;;17.01;52.42;102161.13;4987552;28;20118;-71
2023/04/30 10:51:02;;;;;;;4.25;3.38;;;;;;;17.00;53.26;102157.63;4987180;28;20114;-71
2023/04/30 10:53:31;;;;;;;4.55;3.85;;;;;;;17.15;52.81;102155.31;4986945;28;20774;-71
2023/04/30 10:56:05;;;;;;;4.63;3.70;;;;;;;17.20;53.16;102146.22;4982610;28;20524;-70
2023/04/30 10:58:38;;;;;;;5.18;4.07;;;;;;;17.30;53.73;102149.41;4967685;28;20046;-70
2023/04/30 11:01:13;;;;;;;4.03;3.33;;;;;;;17.52;52.39;102151.25;4966327;28;20054;-70
2023/04/30 11:04:02;;;;;;;4.47;3.50;;;;;;;17.56;51.46;102146.66;4966854;28;20188;-70
2023/04/30 11:06:49;;;;;;;4.55;3.60;;;;;;;17.46;50.82;102147.03;4968267;28;20754;-70
2023/04/30 11:09:17;;;;;;;4.93;3.40;;;;;;;17.35;51.88;102144.75;4968529;28;20040;-70
2023/04/30 11:11:46;;;;;;;4.60;3.10;;;;;;;17.32;50.90;102147.56;4968370;28;20898;-70
2023/04/30 11:14:19;;;;;;;3.35;3.05;;;;;;;17.44;50.17;102142.69;4966018;28;20042;-70
2023/04/30 11:16:52;;;;;;;4.75;3.60;;;;;;;17.40;50.51;102136.59;4950457;28;20134;-71
2023/04/30 11:19:23;;;;;;;4.50;3.22;;;;;;;17.40;50.40;102141.91;4967187;28;20044;-70
2023/04/30 11:22:02;;;;;;;5.13;3.63;;;;;;;17.39;51.16;102143.72;4982445;28;20071;-70
2023/04/30 11:24:57;;;;;;;5.05;3.88;;;;;;;17.48;51.43;102136.28;4967403;28;20043;-71
2023/04/30 11:27:27;;;;;;;;;;;;;;;17.69;52.29;102131.94;4981902;28;20098;-71
2023/04/30 11:29:56;;;;;;;4.32;3.22;;;;;;;18.00;49.39;102120.91;4986727;28;19926;-71
2023/04/30 11:32:35;;;;;;;5.53;3.28;;;;;;;18.03;49.54;102122.56;4985852;28;20047;-70
2023/04/30 11:35:04;;;;;;;4.45;3.97;;;;;;;18.07;49.92;102108.19;4968371;28;20039;-71